createdAt,value
2019-03-12T00:02:07.472Z,29.90
2019-03-12T00:04:45.566Z,30.80
2019-03-12T00:07:24.011Z,28.35
2019-03-12T00:10:02.998Z,29.82
2019-03-12T00:12:41.914Z,26.20
2019-03-12T00:15:22.024Z,28.32
2019-03-12T00:18:00.218Z,28.12
2019-03-12T00:20:39.568Z,28.20
2019-03-12T00:23:18.543Z,27.90
2019-03-12T00:25:56.742Z,25.95
2019-03-12T00:28:34.975Z,28.38
2019-03-12T00:31:13.206Z,30.37
2019-03-12T00:33:54.700Z,27.27
2019-03-12T00:36:32.985Z,31.87
2019-03-12T00:39:14.948Z,30.17
2019-03-12T00:41:53.716Z,32.00
2019-03-12T00:44:31.372Z,28.83
2019-03-12T00:47:11.217Z,28.27
2019-03-12T00:49:49.446Z,27.40
2019-03-12T00:52:27.611Z,30.72
2019-03-12T00:55:08.651Z,30.88
2019-03-12T00:57:47.158Z,31.57
2019-03-12T01:00:24.913Z,35.50
2019-03-12T01:03:03.173Z,34.55
2019-03-12T01:05:43.054Z,33.58
2019-03-12T01:08:20.564Z,34.13
2019-03-12T01:10:58.099Z,35.48
2019-03-12T01:13:36.270Z,35.33
2019-03-12T01:16:15.412Z,37.30
2019-03-12T01:18:53.891Z,36.03
2019-03-12T01:21:32.480Z,37.75
2019-03-12T01:24:13.327Z,38.67
2019-03-12T01:26:51.658Z,36.42
2019-03-12T01:29:30.918Z,38.38
2019-03-12T01:32:09.140Z,38.15
2019-03-12T01:34:47.964Z,43.35
2019-03-12T01:37:28.773Z,47.00
2019-03-12T01:40:07.457Z,41.88
2019-03-12T01:42:45.849Z,41.58
2019-03-12T01:45:24.609Z,47.90
2019-03-12T01:48:02.276Z,47.95
2019-03-12T01:50:41.141Z,50.00
2019-03-12T01:53:23.135Z,52.23
2019-03-12T01:56:01.626Z,51.83
2019-03-12T01:58:40.411Z,56.65
2019-03-12T02:01:18.298Z,58.38
2019-03-12T02:03:56.314Z,59.67
2019-03-12T02:06:34.974Z,60.88
2019-03-12T02:09:15.372Z,59.15
2019-03-12T02:11:52.655Z,59.03
2019-03-12T02:14:32.409Z,57.78
2019-03-12T02:17:10.569Z,59.73
2019-03-12T02:19:48.355Z,58.17
2019-03-12T02:22:27.119Z,58.50
2019-03-12T02:25:07.885Z,59.85
2019-03-12T02:27:47.531Z,57.78
2019-03-12T02:30:25.645Z,57.45
2019-03-12T02:33:05.392Z,56.80
2019-03-12T02:35:43.445Z,53.10
2019-03-12T02:38:21.953Z,53.33
2019-03-12T02:41:00.195Z,55.88
2019-03-12T02:43:38.231Z,53.75
2019-03-12T02:46:16.921Z,53.90
2019-03-12T02:48:56.020Z,54.13
2019-03-12T02:51:34.353Z,52.48
2019-03-12T02:54:13.477Z,52.20
2019-03-12T02:56:54.564Z,52.70
2019-03-12T02:59:33.549Z,53.67
2019-03-12T03:02:12.083Z,52.75
2019-03-12T03:04:54.129Z,52.83
2019-03-12T03:07:47.063Z,54.25
2019-03-12T03:10:25.876Z,51.00
2019-03-12T03:13:10.043Z,53.02
2019-03-12T03:15:49.254Z,51.15
2019-03-12T03:18:29.585Z,51.88
2019-03-12T03:21:08.389Z,51.02
2019-03-12T03:23:46.786Z,50.88
2019-03-12T03:26:27.758Z,52.45
2019-03-12T03:29:05.760Z,51.05
2019-03-12T03:31:43.446Z,52.58
2019-03-12T03:34:27.352Z,52.10
2019-03-12T03:37:01.133Z,51.25
2019-03-12T03:39:40.311Z,52.08
2019-03-12T03:42:20.588Z,54.95
2019-03-12T03:44:58.914Z,52.10
2019-03-12T03:47:43.372Z,48.05
2019-03-12T03:50:22.880Z,46.92
2019-03-12T03:53:02.315Z,47.43
2019-03-12T03:55:40.848Z,44.98
2019-03-12T03:58:19.926Z,45.45
2019-03-12T04:00:58.090Z,43.48
2019-03-12T04:03:35.980Z,44.15
2019-03-12T04:06:15.471Z,48.75
2019-03-12T04:08:53.703Z,48.75
2019-03-12T04:11:31.935Z,47.70
2019-03-12T04:14:10.471Z,45.58
2019-03-12T04:16:49.063Z,43.92
2019-03-12T04:19:27.343Z,43.75
2019-03-12T04:22:06.244Z,44.18
2019-03-12T04:24:44.587Z,41.95
2019-03-12T04:27:24.544Z,41.02
2019-03-12T04:30:05.044Z,42.25
2019-03-12T04:32:43.649Z,42.73
2019-03-12T04:35:26.508Z,42.13
2019-03-12T04:38:06.929Z,42.08
2019-03-12T04:40:44.506Z,43.30
2019-03-12T04:43:24.304Z,43.63
2019-03-12T04:46:02.749Z,42.38
2019-03-12T04:48:40.943Z,42.05
2019-03-12T04:51:20.824Z,39.53
2019-03-12T04:53:59.473Z,38.53
2019-03-12T04:56:37.962Z,39.27
2019-03-12T04:59:18.124Z,40.60
2019-03-12T05:02:16.353Z,40.40
2019-03-12T05:04:55.030Z,38.73
2019-03-12T05:07:38.982Z,39.40
2019-03-12T05:10:32.748Z,38.08
2019-03-12T05:13:12.165Z,37.00
2019-03-12T05:15:50.584Z,37.35
2019-03-12T05:18:32.298Z,37.15
2019-03-12T05:21:12.031Z,35.98
2019-03-12T05:23:50.248Z,35.58
2019-03-12T05:26:27.829Z,35.03
2019-03-12T05:29:07.692Z,33.88
2019-03-12T05:31:46.355Z,33.73
2019-03-12T05:34:24.857Z,33.23
2019-03-12T05:37:03.774Z,33.28
2019-03-12T05:39:43.654Z,34.58
2019-03-12T05:42:25.041Z,35.05
2019-03-12T05:45:04.285Z,35.20
2019-03-12T05:47:42.826Z,34.00
2019-03-12T05:50:21.457Z,33.75
2019-03-12T05:53:17.990Z,34.27
2019-03-12T05:55:56.344Z,35.15
2019-03-12T05:58:34.600Z,36.00
2019-03-12T06:01:12.983Z,37.50
2019-03-12T06:03:51.960Z,40.75
2019-03-12T06:06:30.348Z,47.90
2019-03-12T06:09:11.158Z,49.23
2019-03-12T06:11:50.693Z,47.30
2019-03-12T06:14:29.451Z,48.17
2019-03-12T06:17:09.109Z,45.33
2019-03-12T06:19:50.712Z,47.43
2019-03-12T06:22:29.906Z,49.05
2019-03-12T06:25:11.423Z,49.03
2019-03-12T06:27:50.190Z,49.03
2019-03-12T06:30:30.904Z,51.88
2019-03-12T06:33:17.170Z,47.13
2019-03-12T06:36:24.508Z,46.48
2019-03-12T06:39:22.898Z,45.55
2019-03-12T06:42:22.468Z,44.33
2019-03-12T06:45:13.527Z,42.50
2019-03-12T06:48:07.287Z,45.55
2019-03-12T06:51:02.564Z,42.75
2019-03-12T06:53:59.070Z,43.98
2019-03-12T06:56:49.890Z,46.25
2019-03-12T06:59:46.877Z,40.70
2019-03-12T07:02:36.312Z,40.00
2019-03-12T07:05:45.078Z,37.67
2019-03-12T07:08:44.236Z,38.15
2019-03-12T07:11:40.301Z,38.42
2019-03-12T07:14:32.504Z,39.53
2019-03-12T07:20:17.984Z,39.80
2019-03-12T07:23:04.544Z,37.42
2019-03-12T07:26:02.193Z,36.55
2019-03-12T07:31:50.381Z,35.68
2019-03-12T07:35:02.892Z,32.23
2019-03-12T07:38:05.675Z,33.33
2019-03-12T07:41:04.893Z,30.77
2019-03-12T07:44:03.363Z,30.95
2019-03-12T07:47:06.752Z,30.60
2019-03-12T07:50:02.663Z,31.12
2019-03-12T07:53:00.688Z,30.37
2019-03-12T07:56:04.205Z,29.40
2019-03-12T07:58:54.598Z,29.70
2019-03-12T08:01:47.631Z,31.20
2019-03-12T08:04:54.328Z,33.28
2019-03-12T08:07:52.768Z,32.80
2019-03-12T08:10:52.389Z,31.12
2019-03-12T08:13:49.159Z,30.80
2019-03-12T08:16:39.551Z,30.95
2019-03-12T08:19:44.743Z,31.68
2019-03-12T08:22:50.554Z,30.92
2019-03-12T08:25:53.213Z,31.07
2019-03-12T08:28:43.950Z,29.32
2019-03-12T08:31:32.575Z,30.90
2019-03-12T08:34:22.537Z,27.75
2019-03-12T08:37:11.089Z,26.93
2019-03-12T08:40:00.990Z,24.70
2019-03-12T08:42:57.897Z,21.70
2019-03-12T08:45:52.901Z,19.60
2019-03-12T08:48:44.552Z,19.82
2019-03-12T08:51:49.173Z,18.05
2019-03-12T08:54:54.140Z,15.32
2019-03-12T08:57:45.453Z,14.07
2019-03-12T09:00:45.647Z,14.55
2019-03-12T09:03:42.520Z,12.93
2019-03-12T09:06:42.439Z,7.08
2019-03-12T09:09:42.769Z,7.00
2019-03-12T09:12:47.296Z,10.20
2019-03-12T09:15:46.614Z,10.78
2019-03-12T09:18:42.406Z,10.30
2019-03-12T09:21:52.483Z,9.10
2019-03-12T09:24:48.715Z,9.35
2019-03-12T09:27:45.419Z,8.08
2019-03-12T09:30:39.583Z,8.95
2019-03-12T09:33:30.634Z,9.98
2019-03-12T09:36:18.119Z,9.63
2019-03-12T09:39:14.084Z,8.78
2019-03-12T09:42:09.578Z,6.80
2019-03-12T09:45:09.113Z,11.48
2019-03-12T09:48:17.528Z,13.28
2019-03-12T09:51:30.446Z,14.20
2019-03-12T09:54:35.289Z,11.80
2019-03-12T09:57:32.675Z,12.35
2019-03-12T10:00:33.695Z,13.83
2019-03-12T10:03:30.985Z,13.28
2019-03-12T10:06:21.131Z,13.78
2019-03-12T10:09:19.698Z,13.08
2019-03-12T10:12:11.392Z,12.00
2019-03-12T10:15:19.243Z,14.95
2019-03-12T10:18:10.148Z,14.20
2019-03-12T10:21:12.248Z,13.62
2019-03-12T10:24:14.948Z,10.93
2019-03-12T10:27:11.934Z,12.43
2019-03-12T10:30:07.011Z,13.38
2019-03-12T10:32:57.283Z,10.20
2019-03-12T10:35:52.883Z,9.70
2019-03-12T10:39:22.893Z,10.10
2019-03-12T10:42:09.514Z,9.83
2019-03-12T10:44:57.733Z,10.85
2019-03-12T10:47:36.833Z,10.85
2019-03-12T10:50:15.322Z,9.40
2019-03-12T10:52:55.374Z,10.68
2019-03-12T10:55:33.912Z,9.90
2019-03-12T10:58:12.562Z,9.60
2019-03-12T11:00:52.358Z,9.25
2019-03-12T11:03:32.055Z,9.33
2019-03-12T11:06:10.816Z,10.55
2019-03-12T11:08:50.980Z,11.80
2019-03-12T11:11:30.665Z,11.75
2019-03-12T11:14:08.774Z,12.35
2019-03-12T11:16:46.706Z,12.55
2019-03-12T11:19:24.951Z,14.80
2019-03-12T11:22:05.112Z,17.62
2019-03-12T11:24:44.439Z,19.27
2019-03-12T11:27:22.555Z,18.10
2019-03-12T11:30:01.984Z,19.37
2019-03-12T11:32:42.343Z,18.87
2019-03-12T11:35:20.886Z,21.48
2019-03-12T11:38:02.640Z,21.35
2019-03-12T11:40:41.713Z,22.35
2019-03-12T11:43:20.136Z,21.52
2019-03-12T11:45:59.189Z,22.65
2019-03-12T11:48:37.510Z,21.95
2019-03-12T11:51:15.515Z,22.17
2019-03-12T11:53:56.859Z,23.65
2019-03-12T11:56:37.547Z,25.37
2019-03-12T11:59:17.192Z,24.85
2019-03-12T12:01:56.078Z,25.25
2019-03-12T12:04:34.241Z,24.25
2019-03-12T12:07:13.103Z,24.32
2019-03-12T12:09:50.885Z,24.87
2019-03-12T12:12:29.416Z,25.25
2019-03-12T12:15:07.977Z,27.37
2019-03-12T12:17:49.658Z,25.97
2019-03-12T12:20:29.929Z,26.25
2019-03-12T12:23:07.093Z,27.15
2019-03-12T12:25:45.110Z,27.80
2019-03-12T12:28:24.126Z,27.22
2019-03-12T12:31:02.750Z,28.15
2019-03-12T12:33:43.937Z,27.77
2019-03-12T12:36:21.985Z,28.52
2019-03-12T12:39:01.150Z,28.35
2019-03-12T12:41:40.793Z,27.85
2019-03-12T12:44:18.255Z,26.45
2019-03-12T12:46:56.796Z,27.30
2019-03-12T12:49:35.275Z,28.02
2019-03-12T12:52:13.282Z,26.45
2019-03-12T12:54:51.114Z,27.40
2019-03-12T12:57:30.316Z,26.17
2019-03-12T13:00:09.980Z,27.82
2019-03-12T13:02:50.052Z,26.87
2019-03-12T13:05:31.484Z,26.25
2019-03-12T13:08:09.958Z,26.93
2019-03-12T13:10:48.806Z,24.67
2019-03-12T13:13:27.000Z,25.12
2019-03-12T13:16:06.495Z,28.67
2019-03-12T13:18:44.834Z,24.72
2019-03-12T13:21:23.755Z,23.22
2019-03-12T13:24:02.005Z,23.50
2019-03-12T13:26:45.436Z,24.27
2019-03-12T13:29:24.325Z,23.40
2019-03-12T13:32:13.068Z,22.80
2019-03-12T13:34:43.205Z,23.30
2019-03-12T13:37:23.410Z,23.05
2019-03-12T13:40:02.227Z,22.70
2019-03-12T13:42:43.108Z,24.45
2019-03-12T13:45:22.048Z,22.73
2019-03-12T13:48:00.582Z,22.87
2019-03-12T13:50:38.847Z,23.00
2019-03-12T13:53:19.002Z,23.38
2019-03-12T13:56:00.220Z,23.02
2019-03-12T13:58:39.299Z,23.05
2019-03-12T14:01:17.368Z,23.27
2019-03-12T14:03:55.804Z,25.37
2019-03-12T14:06:34.028Z,25.05
2019-03-12T14:09:13.341Z,26.00
2019-03-12T14:11:51.327Z,24.55
2019-03-12T14:14:29.752Z,23.83
2019-03-12T14:17:08.538Z,24.37
2019-03-12T14:19:46.551Z,23.73
2019-03-12T14:22:25.244Z,23.32
2019-03-12T14:25:03.815Z,23.60
2019-03-12T14:27:42.537Z,22.25
2019-03-12T14:30:21.983Z,22.58
2019-03-12T14:33:00.814Z,21.68
2019-03-12T14:35:50.782Z,21.00
2019-03-12T14:38:19.864Z,20.52
2019-03-12T14:40:58.646Z,20.12
2019-03-12T14:43:38.074Z,21.07
2019-03-12T14:46:16.335Z,21.00
2019-03-12T14:48:56.845Z,20.97
2019-03-12T14:52:11.815Z,21.00
2019-03-12T14:54:52.125Z,22.00
2019-03-12T14:57:31.042Z,21.20
2019-03-12T15:00:15.840Z,21.17
2019-03-12T15:02:54.061Z,21.40
2019-03-12T15:05:32.686Z,21.10
2019-03-12T15:08:14.657Z,20.37
2019-03-12T15:10:54.261Z,21.17
2019-03-12T15:13:33.694Z,20.05
2019-03-12T15:16:12.443Z,20.95
2019-03-12T15:18:52.139Z,21.05
2019-03-12T15:21:31.873Z,19.75
2019-03-12T15:24:10.408Z,20.35
2019-03-12T15:26:48.739Z,19.98
2019-03-12T15:29:26.797Z,20.55
2019-03-12T15:32:05.043Z,19.70
2019-03-12T15:34:44.017Z,19.23
2019-03-12T15:37:22.394Z,20.12
2019-03-12T15:40:00.371Z,19.60
2019-03-12T15:42:40.362Z,19.50
2019-03-12T15:45:19.912Z,20.10
2019-03-12T15:47:58.173Z,18.45
2019-03-12T15:50:37.728Z,18.37
2019-03-12T15:53:16.096Z,18.65
2019-03-12T15:55:55.777Z,18.12
2019-03-12T15:58:33.721Z,18.52
2019-03-12T16:01:12.552Z,18.73
2019-03-12T16:03:50.928Z,18.50
2019-03-12T16:06:28.644Z,20.17
2019-03-12T16:09:07.860Z,18.48
2019-03-12T16:11:47.544Z,18.80
2019-03-12T16:14:25.600Z,18.73
2019-03-12T16:17:03.869Z,19.50
2019-03-12T16:19:42.011Z,19.27
2019-03-12T16:22:20.258Z,18.62
2019-03-12T16:25:03.264Z,18.00
2019-03-12T16:27:49.189Z,19.27
2019-03-12T16:30:27.531Z,20.48
2019-03-12T16:33:09.509Z,18.87
2019-03-12T16:35:47.555Z,18.87
2019-03-12T16:38:25.376Z,19.20
2019-03-12T16:41:04.164Z,18.75
2019-03-12T16:43:42.406Z,19.10
2019-03-12T16:46:21.160Z,19.05
2019-03-12T16:49:00.359Z,19.50
2019-03-12T16:51:38.991Z,20.05
2019-03-12T16:54:16.702Z,20.40
2019-03-12T16:56:54.310Z,20.57
2019-03-12T16:59:38.555Z,19.00
2019-03-12T17:02:16.894Z,19.90
2019-03-12T17:04:55.460Z,19.05
2019-03-12T17:07:33.383Z,19.05
2019-03-12T17:10:12.275Z,19.65
2019-03-12T17:12:50.611Z,19.30
2019-03-12T17:15:28.596Z,20.27
2019-03-12T17:18:06.651Z,19.10
2019-03-12T17:20:46.271Z,18.45
2019-03-12T17:23:24.385Z,19.92
2019-03-12T17:26:02.981Z,19.92
2019-03-12T17:28:41.430Z,19.27
2019-03-12T17:31:18.549Z,20.50
2019-03-12T17:33:57.033Z,19.75
2019-03-12T17:36:35.989Z,20.10
2019-03-12T17:39:14.514Z,19.52
2019-03-12T17:41:52.186Z,20.20
2019-03-12T17:44:29.915Z,20.20
2019-03-12T17:47:07.844Z,20.30
2019-03-12T17:49:45.922Z,19.27
2019-03-12T17:52:24.831Z,20.55
2019-03-12T17:55:04.149Z,20.50
2019-03-12T17:57:42.848Z,19.73
2019-03-12T18:00:23.064Z,19.20
2019-03-12T18:03:02.559Z,19.45
2019-03-12T18:05:41.268Z,19.25
2019-03-12T18:08:20.983Z,19.07
2019-03-12T18:10:59.306Z,18.35
2019-03-12T18:13:37.229Z,18.32
2019-03-12T18:16:15.097Z,19.05
2019-03-12T18:18:53.980Z,17.92
2019-03-12T18:21:32.588Z,17.23
2019-03-12T18:24:11.928Z,16.85
2019-03-12T18:26:50.896Z,17.40
2019-03-12T18:29:29.351Z,16.80
2019-03-12T18:32:07.281Z,16.90
2019-03-12T18:34:45.530Z,16.65
2019-03-12T18:37:23.326Z,16.73
2019-03-12T18:40:01.632Z,17.55
2019-03-12T18:42:42.744Z,18.05
2019-03-12T18:45:22.130Z,17.87
2019-03-12T18:48:00.067Z,17.40
2019-03-12T18:50:38.258Z,17.32
2019-03-12T18:53:17.142Z,18.95
2019-03-12T18:56:10.557Z,18.98
2019-03-12T18:58:48.787Z,17.67
2019-03-12T19:01:28.098Z,18.85
2019-03-12T19:04:07.447Z,17.92
2019-03-12T19:06:48.497Z,18.27
2019-03-12T19:09:29.882Z,18.75
2019-03-12T19:12:09.633Z,17.77
2019-03-12T19:14:48.327Z,19.27
2019-03-12T19:17:26.554Z,18.95
2019-03-12T19:20:12.366Z,19.98
2019-03-12T19:22:50.491Z,19.07
2019-03-12T19:25:29.095Z,19.87
2019-03-12T19:28:29.402Z,21.00
2019-03-12T19:31:31.586Z,20.48
2019-03-12T19:34:14.738Z,20.05
2019-03-12T19:36:53.195Z,21.17
2019-03-12T19:39:36.150Z,22.22
2019-03-12T19:42:14.491Z,21.05
2019-03-12T19:44:53.426Z,20.60
2019-03-12T19:47:32.033Z,21.35
2019-03-12T19:50:11.957Z,23.15
2019-03-12T19:52:50.436Z,20.27
2019-03-12T19:55:32.622Z,20.90
2019-03-12T19:58:12.479Z,21.87
2019-03-12T20:00:51.120Z,23.77
2019-03-12T20:03:31.557Z,22.93
2019-03-12T20:06:09.945Z,21.07
2019-03-12T20:08:48.499Z,22.07
2019-03-12T20:12:11.881Z,23.57
2019-03-12T20:15:33.168Z,23.52
2019-03-12T20:18:46.492Z,23.87
2019-03-12T20:22:15.390Z,23.30
2019-03-12T20:25:34.144Z,23.75
2019-03-12T20:28:59.279Z,23.75
2019-03-12T20:32:10.600Z,24.37
2019-03-12T20:35:20.544Z,23.15
2019-03-12T20:38:46.295Z,23.45
2019-03-12T20:42:02.172Z,23.90
2019-03-12T20:45:31.618Z,23.18
2019-03-12T20:48:52.749Z,23.62
2019-03-12T20:52:23.246Z,23.20
2019-03-12T20:55:48.884Z,23.30
2019-03-12T20:59:11.817Z,23.12
2019-03-12T21:02:30.697Z,22.40
2019-03-12T21:05:42.500Z,23.32
2019-03-12T21:08:58.700Z,23.70
2019-03-12T21:12:13.079Z,23.40
2019-03-12T21:15:15.366Z,24.35
2019-03-12T21:18:53.742Z,23.30
2019-03-12T21:22:03.976Z,23.30
2019-03-12T21:25:06.484Z,23.02
2019-03-12T21:28:30.877Z,22.55
2019-03-12T21:31:14.981Z,21.62
2019-03-12T21:36:30.937Z,22.25
2019-03-12T21:39:13.738Z,21.33
2019-03-12T21:41:52.050Z,21.37
2019-03-12T21:44:30.790Z,22.40
2019-03-12T21:47:09.602Z,21.30
2019-03-12T21:49:48.496Z,23.25
2019-03-12T21:52:26.978Z,22.80
2019-03-12T21:55:06.404Z,22.85
2019-03-12T21:57:47.125Z,23.32
2019-03-12T22:00:26.172Z,23.07
2019-03-12T22:03:04.790Z,22.82
2019-03-12T22:05:44.210Z,22.40
2019-03-12T22:08:25.098Z,23.45
2019-03-12T22:11:03.222Z,22.80
2019-03-12T22:13:41.409Z,24.25
2019-03-12T22:16:19.580Z,22.10
2019-03-12T22:18:57.376Z,21.33
2019-03-12T22:21:45.594Z,23.10
2019-03-12T22:24:24.860Z,22.50
2019-03-12T22:27:03.904Z,22.90
2019-03-12T22:29:42.989Z,22.15
2019-03-12T22:32:22.300Z,23.27
2019-03-12T22:35:01.406Z,22.32
2019-03-12T22:37:40.837Z,22.40
2019-03-12T22:40:18.713Z,21.60
2019-03-12T22:42:58.109Z,23.85
2019-03-12T22:45:37.071Z,23.75
2019-03-12T22:48:15.421Z,24.72
2019-03-12T22:50:53.187Z,10.65
2019-03-12T22:53:32.425Z,19.90
2019-03-12T22:56:11.570Z,23.57
2019-03-12T22:58:50.342Z,23.02
2019-03-12T23:01:31.794Z,23.38
2019-03-12T23:04:11.847Z,23.10
2019-03-12T23:06:52.257Z,23.70
2019-03-12T23:09:32.228Z,22.48
2019-03-12T23:12:11.950Z,23.62
2019-03-12T23:14:51.894Z,22.98
2019-03-12T23:17:30.722Z,22.22
2019-03-12T23:20:09.986Z,23.92
2019-03-12T23:22:52.120Z,22.95
2019-03-12T23:25:30.588Z,24.30
2019-03-12T23:28:09.006Z,22.80
2019-03-12T23:30:48.314Z,23.47
2019-03-12T23:33:25.971Z,23.62
2019-03-12T23:36:04.626Z,23.52
2019-03-12T23:38:47.392Z,23.00
2019-03-12T23:41:25.561Z,25.50
2019-03-12T23:44:02.953Z,24.92
2019-03-12T23:46:42.433Z,24.98
2019-03-12T23:49:21.029Z,23.62
2019-03-12T23:51:59.590Z,22.52
2019-03-12T23:54:37.885Z,22.80
2019-03-12T23:57:17.205Z,25.00
2019-03-12T23:59:55.980Z,22.37
